Time;durP1;ratioP1;P1;durP2;ratioP2;P2;SDS_P1;SDS_P2;PMS_P1;PMS_P2;Temp;Humidity;BMP_temperature;BMP_pressure;BME280_temperature;BME280_humidity;BME280_pressure;Samples;Min_cycle;Max_cycle;Signal;HPM_P1;HPM_P2
2022/08/29 00:01:12;;;;;;;34.20;19.48;;;;;;;;;;8292779;28;20482;-90
2022/08/29 00:05:16;;;;;;;28.60;17.42;;;;;;;;;;8286521;28;20486;-88
2022/08/29 00:09:18;;;;;;;30.73;18.70;;;;;;;;;;8273260;28;20042;-89
2022/08/29 00:13:21;;;;;;;25.90;16.10;;;;;;;;;;8278472;28;20478;-88
2022/08/29 00:17:25;;;;;;;24.48;15.50;;;;;;;;;;8278910;28;20453;-88
2022/08/29 00:21:28;;;;;;;24.40;16.88;;;;;;;;;;8298165;28;20410;-89
2022/08/29 00:25:31;;;;;;;27.42;17.13;;;;;;;;;;8295577;28;20495;-92
2022/08/29 00:29:34;;;;;;;26.23;17.48;;;;;;;;;;8298509;28;20045;-88
2022/08/29 00:33:38;;;;;;;26.60;16.33;;;;;;;;;;8298290;28;20049;-90
2022/08/29 00:37:41;;;;;;;26.67;15.13;;;;;;;;;;8298193;28;20489;-89
2022/08/29 00:41:43;;;;;;;25.17;15.57;;;;;;;;;;8298159;28;20053;-87
2022/08/29 00:45:53;;;;;;;24.67;16.38;;;;;;;;;;8298168;28;20042;-90
2022/08/29 00:49:57;;;;;;;23.75;15.50;;;;;;;;;;8295967;28;20050;-89
2022/08/29 00:54:03;;;;;;;22.88;15.05;;;;;;;;;;8288718;28;20056;-88
2022/08/29 00:58:09;;;;;;;21.65;14.57;;;;;;;;;;8298081;28;20049;-89
2022/08/29 01:02:12;;;;;;;19.73;14.10;;;;;;;;;;8297156;28;20144;-90
2022/08/29 01:06:16;;;;;;;19.92;14.15;;;;;;;;;;8297287;28;20049;-89
2022/08/29 01:14:37;;;;;;;16.55;11.75;;;;;;;;;;8290234;28;20100;-89
2022/08/29 01:18:42;;;;;;;16.92;10.15;;;;;;;;;;8297056;28;20060;-88
2022/08/29 01:22:56;;;;;;;14.68;9.70;;;;;;;;;;8291082;28;20046;-89
2022/08/29 01:27:00;;;;;;;13.63;8.10;;;;;;;;;;8295812;28;20042;-88
2022/08/29 01:31:06;;;;;;;9.38;7.32;;;;;;;;;;8292324;28;20041;-88
2022/08/29 01:35:09;;;;;;;10.25;7.18;;;;;;;;;;8296635;28;20092;-89
2022/08/29 01:39:12;;;;;;;10.07;6.85;;;;;;;;;;8296731;28;20042;-89
2022/08/29 01:43:16;;;;;;;10.13;6.78;;;;;;;;;;8295144;28;20046;-89
2022/08/29 01:47:18;;;;;;;9.50;6.38;;;;;;;;;;8291640;28;20057;-88
2022/08/29 01:51:23;;;;;;;10.70;5.85;;;;;;;;;;8296508;28;20072;-90
2022/08/29 01:55:25;;;;;;;7.45;5.93;;;;;;;;;;8295174;28;20401;-88
2022/08/29 01:59:30;;;;;;;7.18;5.63;;;;;;;;;;8286726;28;20038;-88
2022/08/29 02:03:33;;;;;;;8.00;5.18;;;;;;;;;;8291118;28;20065;-88
2022/08/29 02:07:35;;;;;;;8.63;5.80;;;;;;;;;;8288893;28;20049;-88
2022/08/29 02:11:39;;;;;;;6.47;5.13;;;;;;;;;;8291103;28;20042;-89
2022/08/29 02:15:43;;;;;;;7.88;5.65;;;;;;;;;;8296917;28;20041;-88
2022/08/29 02:19:45;;;;;;;9.05;5.60;;;;;;;;;;8302570;28;20072;-89
2022/08/29 02:23:48;;;;;;;8.50;6.28;;;;;;;;;;8293831;28;20402;-88
2022/08/29 02:27:51;;;;;;;8.52;6.15;;;;;;;;;;8301039;28;20137;-90
2022/08/29 02:31:56;;;;;;;11.57;7.07;;;;;;;;;;8302200;28;20050;-90
2022/08/29 02:35:59;;;;;;;9.27;7.03;;;;;;;;;;8302380;28;20474;-88
2022/08/29 02:40:01;;;;;;;10.38;7.80;;;;;;;;;;8301877;28;20478;-88
2022/08/29 02:44:06;;;;;;;13.07;7.38;;;;;;;;;;8302069;28;20053;-88
2022/08/29 02:48:13;;;;;;;10.32;7.40;;;;;;;;;;8294813;28;20053;-88
2022/08/29 02:52:16;;;;;;;12.55;7.03;;;;;;;;;;8300919;28;20062;-88
2022/08/29 02:56:19;;;;;;;10.00;7.28;;;;;;;;;;8301231;28;20042;-88
2022/08/29 03:00:25;;;;;;;11.50;6.90;;;;;;;;;;8300988;28;20085;-88
2022/08/29 03:04:29;;;;;;;10.27;6.75;;;;;;;;;;8301144;28;20057;-89
2022/08/29 03:08:33;;;;;;;10.30;6.90;;;;;;;;;;8300984;28;20049;-87
2022/08/29 03:12:36;;;;;;;10.90;6.65;;;;;;;;;;8300586;28;20828;-87
2022/08/29 03:16:39;;;;;;;14.05;8.10;;;;;;;;;;8300461;28;20108;-91
2022/08/29 03:20:45;;;;;;;20.45;8.85;;;;;;;;;;8300437;28;20176;-90
2022/08/29 03:24:48;;;;;;;20.17;8.50;;;;;;;;;;8300413;28;20087;-89
2022/08/29 03:28:50;;;;;;;11.75;7.25;;;;;;;;;;8301228;28;20049;-89
2022/08/29 03:32:53;;;;;;;12.07;7.78;;;;;;;;;;8301274;28;20472;-90
2022/08/29 03:36:57;;;;;;;14.15;7.80;;;;;;;;;;8301173;28;20132;-89
2022/08/29 03:41:09;;;;;;;12.13;7.85;;;;;;;;;;8302924;28;20050;-90
2022/08/29 03:45:14;;;;;;;12.70;7.90;;;;;;;;;;8319089;28;20494;-89
2022/08/29 03:54:36;;;;;;;19.10;9.52;;;;;;;;;;8243664;28;20056;-90
2022/08/29 03:58:39;;;;;;;13.55;8.10;;;;;;;;;;8301165;28;20065;-89
2022/08/29 04:02:42;;;;;;;18.95;8.38;;;;;;;;;;8301018;28;20054;-89
2022/08/29 04:06:44;;;;;;;16.13;8.32;;;;;;;;;;8301255;28;20398;-88
2022/08/29 04:10:48;;;;;;;17.10;9.52;;;;;;;;;;8300035;28;20077;-90
2022/08/29 04:14:51;;;;;;;21.90;9.93;;;;;;;;;;8298787;28;20619;-88
2022/08/29 04:18:53;;;;;;;18.08;8.88;;;;;;;;;;8298782;28;20055;-89
2022/08/29 04:22:57;;;;;;;12.63;7.55;;;;;;;;;;8298708;28;20049;-89
2022/08/29 04:27:01;;;;;;;13.07;7.97;;;;;;;;;;8298355;28;20050;-89
2022/08/29 04:31:04;;;;;;;13.00;8.27;;;;;;;;;;8298176;28;20037;-88
2022/08/29 04:35:07;;;;;;;12.77;7.80;;;;;;;;;;8291870;28;20048;-89
2022/08/29 04:39:10;;;;;;;13.27;7.75;;;;;;;;;;8291152;28;20124;-89
2022/08/29 04:43:14;;;;;;;12.10;8.20;;;;;;;;;;8297784;28;20050;-89
2022/08/29 04:47:16;;;;;;;10.73;7.10;;;;;;;;;;8297829;28;20096;-89
2022/08/29 04:51:19;;;;;;;11.23;7.45;;;;;;;;;;8292202;28;20041;-89
2022/08/29 04:55:23;;;;;;;10.85;7.47;;;;;;;;;;8297416;28;20065;-88
2022/08/29 04:59:26;;;;;;;10.52;7.40;;;;;;;;;;8297517;28;20041;-89
2022/08/29 05:03:30;;;;;;;9.48;7.30;;;;;;;;;;8296890;28;20061;-89
2022/08/29 05:07:32;;;;;;;11.43;7.80;;;;;;;;;;8297228;28;20046;-89
2022/08/29 05:11:35;;;;;;;11.90;7.90;;;;;;;;;;8297027;28;20497;-89
2022/08/29 05:15:39;;;;;;;12.50;8.02;;;;;;;;;;8297026;28;20968;-89
2022/08/29 05:19:42;;;;;;;13.50;8.07;;;;;;;;;;8297073;28;20049;-89
2022/08/29 05:23:45;;;;;;;11.70;8.10;;;;;;;;;;8296885;28;20068;-90
2022/08/29 05:27:47;;;;;;;16.77;8.93;;;;;;;;;;8297040;28;20452;-89
2022/08/29 05:31:51;;;;;;;17.60;9.32;;;;;;;;;;8296667;28;20125;-91
2022/08/29 05:35:55;;;;;;;16.45;10.25;;;;;;;;;;8296827;28;20054;-90
2022/08/29 05:39:57;;;;;;;14.65;9.90;;;;;;;;;;8296835;28;20042;-89
2022/08/29 05:44:00;;;;;;;10.85;8.63;;;;;;;;;;8296769;28;20056;-90
2022/08/29 05:48:06;;;;;;;13.38;9.10;;;;;;;;;;8296722;28;20096;-92
2022/08/29 05:52:09;;;;;;;14.60;10.07;;;;;;;;;;8295042;28;20068;-92
2022/08/29 05:56:11;;;;;;;15.68;10.88;;;;;;;;;;8297957;28;20475;-90
2022/08/29 06:00:15;;;;;;;14.20;10.02;;;;;;;;;;8303264;28;20100;-89
2022/08/29 06:04:19;;;;;;;16.85;10.77;;;;;;;;;;8306862;28;20067;-88
2022/08/29 06:08:22;;;;;;;17.00;11.02;;;;;;;;;;8304283;28;20045;-91
2022/08/29 06:12:24;;;;;;;17.23;10.07;;;;;;;;;;8297570;28;20505;-90
2022/08/29 06:16:28;;;;;;;19.15;12.40;;;;;;;;;;8298164;28;20042;-89
2022/08/29 06:20:32;;;;;;;20.88;12.02;;;;;;;;;;8297373;28;20059;-94
2022/08/29 06:24:36;;;;;;;19.48;11.95;;;;;;;;;;8297182;28;20140;-89
2022/08/29 06:28:44;;;;;;;18.85;12.18;;;;;;;;;;8288230;28;20112;-90
2022/08/29 06:32:48;;;;;;;19.95;10.73;;;;;;;;;;8297404;28;20543;-88
2022/08/29 06:36:53;;;;;;;17.73;11.70;;;;;;;;;;8294528;28;20551;-91
2022/08/29 06:40:57;;;;;;;25.30;14.30;;;;;;;;;;8295761;28;20050;-90
2022/08/29 06:44:59;;;;;;;15.25;10.65;;;;;;;;;;8294018;28;20065;-89
2022/08/29 06:49:04;;;;;;;19.75;12.32;;;;;;;;;;8294149;28;20054;-90
2022/08/29 06:53:08;;;;;;;21.73;12.20;;;;;;;;;;8297050;28;20491;-91
2022/08/29 06:57:11;;;;;;;14.95;8.77;;;;;;;;;;8296447;28;20050;-89
2022/08/29 07:01:16;;;;;;;13.57;8.38;;;;;;;;;;8295346;28;20418;-92
2022/08/29 07:05:19;;;;;;;11.70;7.50;;;;;;;;;;8291583;28;20488;-89
2022/08/29 07:09:24;;;;;;;13.55;8.02;;;;;;;;;;8293317;28;20060;-90
2022/08/29 07:13:27;;;;;;;11.57;6.07;;;;;;;;;;8287381;28;20050;-89
2022/08/29 07:17:29;;;;;;;10.40;5.85;;;;;;;;;;8289998;28;20046;-93
2022/08/29 07:21:32;;;;;;;12.32;6.00;;;;;;;;;;8283313;28;20076;-91
2022/08/29 07:25:37;;;;;;;10.73;5.30;;;;;;;;;;8295800;28;20050;-91
2022/08/29 07:29:40;;;;;;;7.72;4.97;;;;;;;;;;8281227;28;20132;-90
2022/08/29 07:33:43;;;;;;;9.52;5.00;;;;;;;;;;8295833;28;20548;-90
2022/08/29 07:37:46;;;;;;;9.88;5.30;;;;;;;;;;8293937;28;20050;-91
2022/08/29 07:41:51;;;;;;;8.98;4.85;;;;;;;;;;8294523;28;20046;-89
2022/08/29 07:45:55;;;;;;;11.88;3.90;;;;;;;;;;8295512;28;20656;-91
2022/08/29 07:49:58;;;;;;;7.45;3.75;;;;;;;;;;8290299;28;20119;-89
2022/08/29 07:54:00;;;;;;;10.18;4.20;;;;;;;;;;8295124;28;20544;-89
2022/08/29 07:58:05;;;;;;;12.77;4.43;;;;;;;;;;8288851;28;20128;-90
2022/08/29 08:02:08;;;;;;;10.00;4.45;;;;;;;;;;8294476;28;20058;-91
2022/08/29 08:06:11;;;;;;;6.57;3.70;;;;;;;;;;8294810;28;20066;-90
2022/08/29 08:10:15;;;;;;;8.10;3.97;;;;;;;;;;8291558;28;20054;-91
2022/08/29 08:14:20;;;;;;;6.18;3.13;;;;;;;;;;8291993;28;20049;-91
2022/08/29 08:18:24;;;;;;;9.32;3.97;;;;;;;;;;8293667;28;20042;-91
2022/08/29 08:22:27;;;;;;;19.38;3.85;;;;;;;;;;8294114;28;20440;-89
2022/08/29 08:26:30;;;;;;;9.52;3.92;;;;;;;;;;8293957;28;20128;-91
2022/08/29 08:30:34;;;;;;;9.43;3.53;;;;;;;;;;8294093;28;20486;-92
2022/08/29 08:34:36;;;;;;;9.00;3.83;;;;;;;;;;8288886;28;20049;-90
2022/08/29 08:38:39;;;;;;;6.45;3.65;;;;;;;;;;8293522;28;20049;-90
2022/08/29 08:42:44;;;;;;;8.60;3.67;;;;;;;;;;8287636;28;20501;-91
2022/08/29 08:46:51;;;;;;;7.18;3.33;;;;;;;;;;8292184;28;20069;-89
2022/08/29 08:50:59;;;;;;;7.90;3.45;;;;;;;;;;8287208;28;20387;-90
2022/08/29 08:55:09;;;;;;;5.70;2.65;;;;;;;;;;8291612;28;20776;-90
2022/08/29 08:59:18;;;;;;;8.88;3.05;;;;;;;;;;8287938;28;20446;-90
2022/08/29 09:03:48;;;;;;;7.03;2.90;;;;;;;;;;8292587;28;20109;-90
2022/08/29 09:08:01;;;;;;;10.88;3.83;;;;;;;;;;8285818;28;20100;-90
2022/08/29 09:12:16;;;;;;;12.55;3.83;;;;;;;;;;8275892;28;20471;-92
2022/08/29 09:16:25;;;;;;;7.43;3.45;;;;;;;;;;8274646;28;20061;-90
2022/08/29 09:20:33;;;;;;;9.10;3.38;;;;;;;;;;8268089;28;20042;-91
2022/08/29 09:24:42;;;;;;;7.78;3.00;;;;;;;;;;8277400;28;20046;-90
2022/08/29 09:28:45;;;;;;;9.27;3.03;;;;;;;;;;8289958;28;20041;-89
2022/08/29 09:32:58;;;;;;;7.35;2.80;;;;;;;;;;8290474;28;20045;-91
2022/08/29 09:37:03;;;;;;;7.95;2.95;;;;;;;;;;8285737;28;20048;-89
2022/08/29 09:41:09;;;;;;;7.15;2.45;;;;;;;;;;8292407;28;20088;-91
2022/08/29 09:45:19;;;;;;;6.55;2.60;;;;;;;;;;8291905;28;20674;-90
2022/08/29 09:49:22;;;;;;;10.80;2.83;;;;;;;;;;8288406;28;20517;-89
2022/08/29 09:53:27;;;;;;;6.03;2.97;;;;;;;;;;8291616;28;20096;-89
2022/08/29 09:57:32;;;;;;;11.20;3.25;;;;;;;;;;8290324;28;20470;-91
2022/08/29 10:01:37;;;;;;;8.18;2.60;;;;;;;;;;8291085;28;20476;-89
2022/08/29 10:05:43;;;;;;;6.88;3.03;;;;;;;;;;8287795;28;20057;-91
2022/08/29 10:09:56;;;;;;;8.65;3.05;;;;;;;;;;8290605;28;20046;-91
2022/08/29 10:14:02;;;;;;;3.60;2.20;;;;;;;;;;8296019;28;20474;-90
2022/08/29 10:18:23;;;;;;;6.53;2.53;;;;;;;;;;8296203;28;20053;-92
2022/08/29 10:22:32;;;;;;;6.40;2.60;;;;;;;;;;8280244;28;20490;-91
2022/08/29 10:26:44;;;;;;;6.22;2.50;;;;;;;;;;8284449;28;20071;-93
2022/08/29 10:30:56;;;;;;;7.15;2.80;;;;;;;;;;8286464;28;20068;-91
2022/08/29 10:35:10;;;;;;;9.57;2.83;;;;;;;;;;8288613;28;20054;-90
2022/08/29 10:39:16;;;;;;;6.82;2.92;;;;;;;;;;8287161;28;20532;-91
2022/08/29 10:43:28;;;;;;;8.35;2.75;;;;;;;;;;8290877;28;20053;-92
2022/08/29 10:47:36;;;;;;;7.43;2.85;;;;;;;;;;8292077;28;20105;-91
2022/08/29 10:51:48;;;;;;;6.07;3.47;;;;;;;;;;8298478;28;20046;-93
2022/08/29 10:55:57;;;;;;;11.55;3.55;;;;;;;;;;8285300;28;20041;-92
2022/08/29 11:00:09;;;;;;;10.05;4.20;;;;;;;;;;8292370;28;20545;-93
2022/08/29 11:04:18;;;;;;;9.02;3.67;;;;;;;;;;8294367;28;20053;-91
2022/08/29 11:08:26;;;;;;;8.25;4.00;;;;;;;;;;8295147;28;20050;-93
2022/08/29 11:12:35;;;;;;;12.68;4.20;;;;;;;;;;8294331;28;20053;-90
2022/08/29 11:16:45;;;;;;;7.88;3.78;;;;;;;;;;8293515;28;20065;-91
2022/08/29 11:20:52;;;;;;;7.93;3.70;;;;;;;;;;8293198;28;20046;-91
2022/08/29 11:25:02;;;;;;;7.82;3.78;;;;;;;;;;8294600;28;20509;-91
2022/08/29 11:29:17;;;;;;;8.23;4.00;;;;;;;;;;8293276;28;20486;-90
2022/08/29 11:33:32;;;;;;;6.40;3.25;;;;;;;;;;8296334;28;20680;-92
2022/08/29 11:37:57;;;;;;;8.27;3.25;;;;;;;;;;8284365;28;20054;-90
2022/08/29 11:42:03;;;;;;;10.73;4.35;;;;;;;;;;8288427;28;20042;-91
2022/08/29 11:46:10;;;;;;;12.15;3.65;;;;;;;;;;8293571;28;20129;-92
2022/08/29 11:50:30;;;;;;;8.13;3.60;;;;;;;;;;8294420;28;20550;-93
2022/08/29 11:55:08;;;;;;;11.88;3.55;;;;;;;;;;8295153;28;20088;-92
2022/08/29 11:59:47;;;;;;;8.18;3.08;;;;;;;;;;8295677;28;20516;-93
2022/08/29 12:03:53;;;;;;;6.25;3.38;;;;;;;;;;8227695;28;20608;-91
2022/08/29 12:08:01;;;;;;;7.03;3.00;;;;;;;;;;8264196;28;20137;-91
2022/08/29 12:12:36;;;;;;;9.02;3.40;;;;;;;;;;8255751;28;20466;-91
2022/08/29 12:16:49;;;;;;;5.00;3.22;;;;;;;;;;8261574;28;20057;-91
2022/08/29 12:20:54;;;;;;;8.70;3.30;;;;;;;;;;8263185;28;20050;-90
2022/08/29 12:24:58;;;;;;;8.45;3.47;;;;;;;;;;8256526;28;20116;-92
2022/08/29 12:29:04;;;;;;;12.45;3.30;;;;;;;;;;8262412;28;20056;-92
2022/08/29 12:33:20;;;;;;;9.23;3.25;;;;;;;;;;8260867;28;20521;-94
2022/08/29 12:37:47;;;;;;;5.50;3.08;;;;;;;;;;8262574;28;20454;-90
2022/08/29 12:42:16;;;;;;;5.28;3.08;;;;;;;;;;8260711;28;20121;-92
2022/08/29 12:46:24;;;;;;;6.78;3.40;;;;;;;;;;8256139;28;20100;-92
2022/08/29 12:50:42;;;;;;;6.07;3.45;;;;;;;;;;8258074;28;20042;-92
2022/08/29 12:54:45;;;;;;;7.43;3.50;;;;;;;;;;8268505;28;20050;-90
2022/08/29 12:58:56;;;;;;;7.22;3.28;;;;;;;;;;8265834;28;20042;-90
2022/08/29 13:03:02;;;;;;;5.32;3.05;;;;;;;;;;8303075;28;20121;-91
2022/08/29 13:07:08;;;;;;;10.82;3.30;;;;;;;;;;8301162;28;20045;-93
2022/08/29 13:11:12;;;;;;;7.25;2.88;;;;;;;;;;8296632;28;20046;-92
2022/08/29 13:15:22;;;;;;;9.57;3.20;;;;;;;;;;8289733;28;20037;-94
2022/08/29 13:19:24;;;;;;;8.75;3.28;;;;;;;;;;8296094;28;20073;-91
2022/08/29 13:23:30;;;;;;;11.40;4.35;;;;;;;;;;8290909;28;20124;-92
2022/08/29 13:27:33;;;;;;;8.63;3.22;;;;;;;;;;8294010;28;20057;-90
2022/08/29 13:31:38;;;;;;;10.13;3.50;;;;;;;;;;8289843;28;20052;-90
2022/08/29 13:35:41;;;;;;;4.95;3.05;;;;;;;;;;8291378;28;20049;-91
2022/08/29 13:39:46;;;;;;;7.70;3.35;;;;;;;;;;8292275;28;20629;-92
2022/08/29 13:43:49;;;;;;;7.55;2.70;;;;;;;;;;8281096;28;20042;-92
2022/08/29 13:47:57;;;;;;;9.93;3.17;;;;;;;;;;8288773;28;20527;-91
2022/08/29 13:52:01;;;;;;;7.28;3.00;;;;;;;;;;8288937;28;20097;-92
2022/08/29 13:56:04;;;;;;;6.88;3.25;;;;;;;;;;8291418;28;20453;-93
2022/08/29 14:00:11;;;;;;;6.88;3.20;;;;;;;;;;8288009;28;20567;-90
2022/08/29 14:04:15;;;;;;;11.35;4.03;;;;;;;;;;8290958;28;20046;-89
2022/08/29 14:08:17;;;;;;;9.93;3.50;;;;;;;;;;8287574;28;20050;-92
2022/08/29 14:12:20;;;;;;;7.65;3.05;;;;;;;;;;8292181;28;20050;-91
2022/08/29 14:16:23;;;;;;;7.28;3.92;;;;;;;;;;8299193;28;20460;-89
2022/08/29 14:20:27;;;;;;;5.63;3.17;;;;;;;;;;8294650;28;20125;-90
2022/08/29 14:24:32;;;;;;;7.85;3.28;;;;;;;;;;8299164;28;20056;-90
2022/08/29 14:28:34;;;;;;;9.20;3.17;;;;;;;;;;8293585;28;20045;-90
2022/08/29 14:32:37;;;;;;;5.55;3.08;;;;;;;;;;8293233;28;20054;-91
2022/08/29 14:36:41;;;;;;;8.05;2.67;;;;;;;;;;8287891;28;20080;-92
2022/08/29 14:40:44;;;;;;;10.50;3.75;;;;;;;;;;8295267;28;20616;-91
2022/08/29 14:44:47;;;;;;;8.40;3.20;;;;;;;;;;8296441;28;20129;-90
2022/08/29 14:48:49;;;;;;;11.18;3.72;;;;;;;;;;8297981;28;20054;-94
2022/08/29 14:52:53;;;;;;;9.25;2.90;;;;;;;;;;8294592;28;20069;-91
2022/08/29 14:56:56;;;;;;;12.98;3.95;;;;;;;;;;8298312;28;20049;-90
2022/08/29 15:00:58;;;;;;;10.05;3.58;;;;;;;;;;8297170;28;20066;-91
2022/08/29 15:05:01;;;;;;;9.18;2.70;;;;;;;;;;8295511;28;20050;-92
2022/08/29 15:09:05;;;;;;;7.65;2.75;;;;;;;;;;8294018;28;20068;-91
2022/08/29 15:13:08;;;;;;;6.05;2.45;;;;;;;;;;8288283;28;20066;-92
2022/08/29 15:17:12;;;;;;;5.97;2.70;;;;;;;;;;8295982;28;20379;-91
2022/08/29 15:21:15;;;;;;;10.13;3.92;;;;;;;;;;8296568;28;20049;-91
2022/08/29 15:25:20;;;;;;;8.32;3.13;;;;;;;;;;8293925;28;20466;-87
2022/08/29 15:29:22;;;;;;;10.73;3.75;;;;;;;;;;8292182;28;20038;-92
2022/08/29 15:33:25;;;;;;;10.00;3.15;;;;;;;;;;8291141;28;20049;-90
2022/08/29 15:37:37;;;;;;;5.38;2.72;;;;;;;;;;8285192;28;20041;-88
2022/08/29 15:41:44;;;;;;;6.90;3.80;;;;;;;;;;8292771;28;20046;-92
2022/08/29 15:45:46;;;;;;;10.65;4.00;;;;;;;;;;8293912;28;20062;-91
2022/08/29 15:49:49;;;;;;;6.00;2.60;;;;;;;;;;8289794;28;20069;-91
2022/08/29 15:53:51;;;;;;;7.20;2.80;;;;;;;;;;8292409;28;20360;-90
2022/08/29 15:57:55;;;;;;;8.98;3.17;;;;;;;;;;8296690;28;20042;-90
2022/08/29 16:01:58;;;;;;;13.10;4.10;;;;;;;;;;8296845;28;20058;-92
2022/08/29 16:06:00;;;;;;;8.10;3.03;;;;;;;;;;8293360;28;20133;-91
2022/08/29 16:10:04;;;;;;;8.02;3.50;;;;;;;;;;8295425;28;20390;-91
2022/08/29 16:14:08;;;;;;;7.90;3.28;;;;;;;;;;8292569;28;20052;-92
2022/08/29 16:18:11;;;;;;;7.60;3.35;;;;;;;;;;8290292;28;20042;-91
2022/08/29 16:22:13;;;;;;;10.57;3.22;;;;;;;;;;8293077;28;20482;-90
2022/08/29 16:26:18;;;;;;;7.43;3.28;;;;;;;;;;8285443;28;20046;-92
2022/08/29 16:30:23;;;;;;;7.80;2.67;;;;;;;;;;8282922;28;20099;-90
2022/08/29 16:34:26;;;;;;;10.88;3.50;;;;;;;;;;8273603;28;20124;-90
2022/08/29 16:38:29;;;;;;;6.63;3.35;;;;;;;;;;8276535;28;20551;-91
2022/08/29 16:42:33;;;;;;;13.13;3.22;;;;;;;;;;8288276;28;20405;-90
2022/08/29 16:46:37;;;;;;;7.45;2.95;;;;;;;;;;8292892;28;20119;-92
2022/08/29 16:50:40;;;;;;;8.82;3.40;;;;;;;;;;8289172;28;20049;-92
2022/08/29 16:54:42;;;;;;;11.93;4.57;;;;;;;;;;8278916;28;20406;-93
2022/08/29 16:58:59;;;;;;;11.93;4.70;;;;;;;;;;8272823;28;20680;-90
2022/08/29 17:03:04;;;;;;;9.50;3.20;;;;;;;;;;8279865;28;20089;-91
2022/08/29 17:07:07;;;;;;;10.00;3.42;;;;;;;;;;8281807;28;20621;-91
2022/08/29 17:19:14;;;;;;;8.82;3.28;;;;;;;;;;8273722;28;20076;-90
2022/08/29 17:23:17;;;;;;;8.68;3.72;;;;;;;;;;8276817;28;20045;-89
2022/08/29 17:27:32;;;;;;;11.90;4.28;;;;;;;;;;8280521;28;20069;-90
2022/08/29 17:31:45;;;;;;;9.85;3.65;;;;;;;;;;8287210;28;20060;-90
2022/08/29 17:35:49;;;;;;;6.72;3.70;;;;;;;;;;8294169;28;20401;-91
2022/08/29 17:39:53;;;;;;;10.20;4.80;;;;;;;;;;8296715;28;20124;-90
2022/08/29 17:43:55;;;;;;;11.77;5.90;;;;;;;;;;8292786;28;20396;-89
2022/08/29 17:48:07;;;;;;;13.88;7.53;;;;;;;;;;8292226;28;20050;-89
2022/08/29 17:52:12;;;;;;;12.82;6.90;;;;;;;;;;8285435;28;20046;-91
2022/08/29 17:56:17;;;;;;;14.63;8.10;;;;;;;;;;8284124;28;20042;-89
2022/08/29 18:00:23;;;;;;;18.48;8.63;;;;;;;;;;8293868;28;20056;-89
2022/08/29 18:04:26;;;;;;;15.77;8.80;;;;;;;;;;8280898;28;20061;-89
2022/08/29 18:08:30;;;;;;;18.98;8.57;;;;;;;;;;8296071;28;20398;-89
2022/08/29 18:12:42;;;;;;;15.52;9.48;;;;;;;;;;8296239;28;20042;-88
2022/08/29 18:16:45;;;;;;;18.00;10.05;;;;;;;;;;8286599;28;20578;-89
2022/08/29 18:20:47;;;;;;;14.52;8.35;;;;;;;;;;8296035;28;20177;-90
2022/08/29 18:24:52;;;;;;;16.75;9.10;;;;;;;;;;8299089;28;20053;-90
2022/08/29 18:33:29;;;;;;;15.85;7.63;;;;;;;;;;8289548;28;20057;-88
2022/08/29 18:37:38;;;;;;;16.40;7.97;;;;;;;;;;8297629;28;20125;-92
2022/08/29 18:41:43;;;;;;;18.38;8.75;;;;;;;;;;8296238;28;20065;-89
2022/08/29 18:45:46;;;;;;;17.15;7.88;;;;;;;;;;8278760;28;20049;-88
2022/08/29 18:54:08;;;;;;;10.20;5.43;;;;;;;;;;8253438;28;20137;-90
2022/08/29 18:58:12;;;;;;;9.65;5.03;;;;;;;;;;8298261;28;20049;-92
2022/08/29 19:02:15;;;;;;;9.77;5.20;;;;;;;;;;8302233;28;20123;-88
2022/08/29 19:06:18;;;;;;;10.80;5.40;;;;;;;;;;8302645;28;20038;-89
2022/08/29 19:10:22;;;;;;;12.98;5.68;;;;;;;;;;8302619;28;20406;-89
2022/08/29 19:14:26;;;;;;;13.63;5.65;;;;;;;;;;8302985;28;20401;-91
2022/08/29 19:18:29;;;;;;;14.15;5.82;;;;;;;;;;8302791;28;20402;-90
2022/08/29 19:22:31;;;;;;;10.63;5.32;;;;;;;;;;8301728;28;20046;-90
2022/08/29 19:26:37;;;;;;;10.93;5.55;;;;;;;;;;8295092;28;20052;-90
2022/08/29 19:30:42;;;;;;;9.60;5.00;;;;;;;;;;8294087;28;20049;-91
2022/08/29 19:34:45;;;;;;;12.88;5.47;;;;;;;;;;8298669;28;20045;-96
2022/08/29 19:38:47;;;;;;;13.80;6.28;;;;;;;;;;8301192;28;20050;-89
2022/08/29 19:42:51;;;;;;;11.27;5.50;;;;;;;;;;8301169;28;20046;-91
2022/08/29 19:46:54;;;;;;;9.15;5.38;;;;;;;;;;8301624;28;20049;-91
2022/08/29 19:50:57;;;;;;;9.52;5.57;;;;;;;;;;8301516;28;20050;-89
2022/08/29 19:55:01;;;;;;;9.82;5.40;;;;;;;;;;8301211;28;20073;-90
2022/08/29 19:59:04;;;;;;;12.98;5.78;;;;;;;;;;8301018;28;20540;-90
2022/08/29 20:03:08;;;;;;;11.25;4.75;;;;;;;;;;8300206;28;20120;-90
2022/08/29 20:07:11;;;;;;;10.40;4.45;;;;;;;;;;8300127;28;20041;-90
2022/08/29 20:11:16;;;;;;;13.32;5.97;;;;;;;;;;8299166;28;20046;-88
2022/08/29 20:15:19;;;;;;;11.80;5.80;;;;;;;;;;8299722;28;20041;-89
2022/08/29 20:19:25;;;;;;;8.02;4.38;;;;;;;;;;8300305;28;20041;-90
2022/08/29 20:23:28;;;;;;;11.30;5.22;;;;;;;;;;8299520;28;20453;-89
2022/08/29 20:27:31;;;;;;;11.13;5.32;;;;;;;;;;8299541;28;20097;-92
2022/08/29 20:31:34;;;;;;;8.57;4.63;;;;;;;;;;8299803;28;20061;-89
2022/08/29 20:39:59;;;;;;;10.63;5.13;;;;;;;;;;8298253;28;20038;-89
2022/08/29 20:44:05;;;;;;;9.85;5.28;;;;;;;;;;8299138;28;20042;-89
2022/08/29 20:48:10;;;;;;;10.35;4.93;;;;;;;;;;8298726;28;20061;-90
2022/08/29 20:52:18;;;;;;;8.43;4.10;;;;;;;;;;8299149;28;20049;-89
2022/08/29 20:56:21;;;;;;;11.85;4.95;;;;;;;;;;8298943;28;20478;-91
2022/08/29 21:00:24;;;;;;;12.75;4.85;;;;;;;;;;8298176;28;20057;-89
2022/08/29 21:08:48;;;;;;;9.27;4.82;;;;;;;;;;8298213;28;20116;-88
2022/08/29 21:12:51;;;;;;;10.27;5.07;;;;;;;;;;8298584;28;20046;-89
2022/08/29 21:16:55;;;;;;;7.50;4.72;;;;;;;;;;8298433;28;20457;-89
2022/08/29 21:20:58;;;;;;;11.07;5.38;;;;;;;;;;8297376;28;20116;-89
2022/08/29 21:25:02;;;;;;;9.95;5.47;;;;;;;;;;8298112;28;20398;-89
2022/08/29 21:29:05;;;;;;;10.52;5.95;;;;;;;;;;8297065;28;20151;-89
2022/08/29 21:33:08;;;;;;;10.98;5.15;;;;;;;;;;8298038;28;20053;-89
2022/08/29 21:37:11;;;;;;;8.18;5.25;;;;;;;;;;8297702;28;20049;-89
2022/08/29 21:41:15;;;;;;;9.60;5.38;;;;;;;;;;8297661;28;20425;-89
2022/08/29 21:45:18;;;;;;;9.27;5.13;;;;;;;;;;8292783;28;20385;-90
2022/08/29 21:49:21;;;;;;;8.27;4.95;;;;;;;;;;8296104;28;20041;-89
2022/08/29 21:53:24;;;;;;;10.20;5.35;;;;;;;;;;8296468;28;20050;-90
2022/08/29 22:01:49;;;;;;;9.65;5.22;;;;;;;;;;8304522;28;20049;-92
2022/08/29 22:05:53;;;;;;;9.57;5.22;;;;;;;;;;8303487;28;20498;-91
2022/08/29 22:09:56;;;;;;;8.23;5.35;;;;;;;;;;8303284;28;20458;-92
2022/08/29 22:14:00;;;;;;;10.13;5.20;;;;;;;;;;8299275;28;20053;-89
2022/08/29 22:18:03;;;;;;;9.55;5.30;;;;;;;;;;8298182;28;20042;-90
2022/08/29 22:22:09;;;;;;;9.30;4.60;;;;;;;;;;8302043;28;20046;-90
2022/08/29 22:26:15;;;;;;;8.63;4.68;;;;;;;;;;8303679;28;20042;-93
2022/08/29 22:30:19;;;;;;;9.10;4.80;;;;;;;;;;8299606;28;20084;-91
2022/08/29 22:34:21;;;;;;;7.78;4.40;;;;;;;;;;8300370;28;20101;-90
2022/08/29 22:38:24;;;;;;;9.68;4.80;;;;;;;;;;8303235;28;20045;-89
2022/08/29 22:42:30;;;;;;;8.10;4.75;;;;;;;;;;8326754;28;20052;-93
2022/08/29 22:46:34;;;;;;;8.23;4.65;;;;;;;;;;8325692;28;20535;-89
2022/08/29 22:50:37;;;;;;;6.40;4.28;;;;;;;;;;8342453;28;20030;-89
2022/08/29 22:54:39;;;;;;;9.27;5.25;;;;;;;;;;8337190;28;20038;-89
2022/08/29 22:58:42;;;;;;;9.15;5.07;;;;;;;;;;8322486;28;20048;-88
2022/08/29 23:02:47;;;;;;;12.88;4.82;;;;;;;;;;8315824;28;20062;-87
2022/08/29 23:06:50;;;;;;;8.18;4.63;;;;;;;;;;8314798;28;20052;-90
2022/08/29 23:10:53;;;;;;;11.48;4.65;;;;;;;;;;8305112;28;20049;-88
2022/08/29 23:14:55;;;;;;;9.80;4.35;;;;;;;;;;8307501;28;20058;-90
2022/08/29 23:19:00;;;;;;;10.85;5.07;;;;;;;;;;8297218;28;20501;-87
2022/08/29 23:23:03;;;;;;;7.30;4.72;;;;;;;;;;8298155;28;20046;-93
2022/08/29 23:27:05;;;;;;;8.95;4.70;;;;;;;;;;8301173;28;20061;-92
2022/08/29 23:31:08;;;;;;;9.48;4.75;;;;;;;;;;8302868;28;20121;-88
2022/08/29 23:35:12;;;;;;;8.05;5.22;;;;;;;;;;8305085;28;20050;-88
2022/08/29 23:39:14;;;;;;;7.97;4.75;;;;;;;;;;8301808;28;20045;-86
2022/08/29 23:43:19;;;;;;;10.57;4.80;;;;;;;;;;8302170;28;20041;-87
2022/08/29 23:47:22;;;;;;;17.15;5.25;;;;;;;;;;8298514;28;20061;-87
2022/08/29 23:51:26;;;;;;;7.43;4.60;;;;;;;;;;8296452;28;20046;-88
2022/08/29 23:55:29;;;;;;;10.82;5.30;;;;;;;;;;8293944;28;20046;-94
